Weather History for Staunton, VA

Change the Weather History Date:

Friday, September 13, 2013

  Actual Average Record
Temperature  
Mean Temperature 66 °F -  
Max Temperature 75 °F 79 °F 93 °F (1998)
Min Temperature 57 °F 55 °F 37 °F (2001)
Cooling Degree Days 1    
Growing Degree Days 16 (Base 50)    
Moisture  
Dew Point 51 °F    
Average Humidity 61    
Maximum Humidity 91    
Minimum Humidity 29    
Precipitation  
Precipitation 0.00 in - - ()
Sea Level Pressure  
Sea Level Pressure 29.88 in    
Wind  
Wind Speed 5 mph (NNW)    
Max Wind Speed 18 mph    
Max Gust Speed 24 mph    
Visibility 10 miles    
Events      
Averages and records for this station are not official NWS values.
T = Trace of Precipitation, MM = Missing Value Source: NWS Daily Summary

Daily Weather History Graph

Daily Weather History Graph

Search for Another Location

Airport:

Trip Planner

Search our weather history database for the weather conditions in past years. The results will help you decide how hot, cold, wet, or windy it might be!

Date:

Astronomy

Sep. 13, 2013 Rise Set
Actual Time 6:55 AM EDT 7:26 PM EDT
Civil Twilight 6:29 AM EDT 7:52 PM EDT
Nautical Twilight 5:57 AM EDT 8:24 PM EDT
Astronomical Twilight 5:25 AM EDT 8:56 PM EDT
Moon 3:10 PM EDT (9/13) 12:27 AM EDT (9/13)
Length of Visible Light 13h 23m
Length of Day
12h 30m
First Quarter, 61% of the Moon is Illuminated
Sep 13
First Quarter
Sep 19
Full
Sep 26
Last Quarter
Oct 4
New
Oct 11
First Quarter

Hourly Weather History & Observations

Time (EDT) Temp. Dew Point Humidity Pressure Visibility Wind Dir Wind Speed Gust Speed Precip Events Conditions
12:15 AM 65.7 °F 61.0 °F 85% 29.85 in 10.0 mi Calm Calm - N/A   Clear
12:35 AM 65.8 °F 60.6 °F 83% 29.84 in 10.0 mi Calm Calm - N/A   Clear
12:55 AM 65.3 °F 60.3 °F 84% 29.84 in 10.0 mi Calm Calm - N/A   Clear
1:15 AM 66.0 °F 59.4 °F 79% 29.84 in 10.0 mi Calm Calm - N/A   Clear
1:35 AM 64.0 °F 59.2 °F 84% 29.84 in 10.0 mi Calm Calm - N/A   Clear
1:55 AM 64.6 °F 58.8 °F 82% 29.83 in 10.0 mi SW 3.5 mph - N/A   Clear
2:15 AM 65.5 °F 57.9 °F 77% 29.82 in 10.0 mi Calm Calm - N/A   Clear
2:35 AM 64.6 °F 58.3 °F 80% 29.81 in 10.0 mi South 3.5 mph - N/A   Clear
2:55 AM 62.8 °F 58.3 °F 85% 29.81 in 10.0 mi Calm Calm - N/A   Clear
3:15 AM 62.2 °F 57.9 °F 86% 29.81 in 10.0 mi Calm Calm - N/A   Clear
3:35 AM 62.4 °F 58.3 °F 86% 29.81 in 10.0 mi Calm Calm - N/A   Clear
3:55 AM 60.8 °F 57.7 °F 90% 29.80 in 7.0 mi Calm Calm - N/A   Clear
4:15 AM 61.7 °F 58.1 °F 88% 29.81 in 10.0 mi Calm Calm - N/A   Clear
4:35 AM 60.8 °F 58.1 °F 91% 29.81 in 7.0 mi Calm Calm - N/A   Clear
4:55 AM 60.6 °F 58.1 °F 91% 29.81 in 7.0 mi Calm Calm - N/A   Clear
5:15 AM 59.9 °F 57.0 °F 90% 29.81 in 7.0 mi Calm Calm - N/A   Clear
5:35 AM 58.8 °F 55.9 °F 90% 29.81 in 7.0 mi Calm Calm - N/A   Scattered Clouds
5:55 AM 61.5 °F 58.5 °F 90% 29.83 in 7.0 mi North 3.5 mph - N/A   Mostly Cloudy
6:15 AM 61.2 °F 58.3 °F 90% 29.84 in 7.0 mi Calm Calm - N/A   Overcast
6:35 AM 62.6 °F 57.4 °F 83% 29.84 in 10.0 mi NW 3.5 mph - N/A   Overcast
6:55 AM 63.5 °F 54.1 °F 72% 29.86 in 10.0 mi NNW 6.9 mph - N/A   Overcast
7:15 AM 62.1 °F 53.4 °F 73% 29.86 in 10.0 mi North 9.2 mph - N/A   Drizzle
7:35 AM 61.7 °F 53.6 °F 75% 29.86 in 10.0 mi North 5.8 mph - N/A   Overcast
7:55 AM 60.3 °F 54.0 °F 80% 29.85 in 10.0 mi NE 3.5 mph - N/A   Scattered Clouds
8:15 AM 62.2 °F 54.7 °F 76% 29.86 in 10.0 mi North 5.8 mph - N/A   Scattered Clouds
8:35 AM 63.0 °F 55.0 °F 75% 29.87 in 10.0 mi North 5.8 mph - N/A   Scattered Clouds
8:55 AM 64.4 °F 55.4 °F 73% 29.87 in 10.0 mi North 5.8 mph - N/A   Clear
9:15 AM 66.2 °F 55.9 °F 69% 29.87 in 10.0 mi North 5.8 mph - N/A   Clear
9:35 AM 66.9 °F 55.2 °F 66% 29.88 in 10.0 mi North 8.1 mph - N/A   Scattered Clouds
9:55 AM 68.0 °F 55.0 °F 63% 29.87 in 10.0 mi NNE 5.8 mph - N/A   Scattered Clouds
10:15 AM 70.2 °F 53.2 °F 55% 29.88 in 10.0 mi North 9.2 mph - N/A   Scattered Clouds
10:35 AM 70.0 °F 53.4 °F 56% 29.88 in 10.0 mi North 3.5 mph - N/A   Scattered Clouds
10:55 AM 70.0 °F 54.1 °F 57% 29.88 in 10.0 mi NNW 8.1 mph - N/A   Scattered Clouds
11:15 AM 71.8 °F 53.2 °F 52% 29.88 in 10.0 mi NNW 11.5 mph 18.4 mph N/A   Scattered Clouds
11:35 AM 73.0 °F 48.9 °F 42% 29.87 in 10.0 mi NW 16.1 mph 21.9 mph N/A   Scattered Clouds
11:55 AM 73.2 °F 48.2 °F 41% 29.87 in 7.0 mi NW 15.0 mph 23.0 mph N/A   Clear
12:15 PM 74.3 °F 45.0 °F 35% 29.86 in 10.0 mi NW 17.3 mph 24.2 mph N/A   Clear
12:35 PM 73.6 °F 46.6 °F 38% 29.87 in 10.0 mi WNW 17.3 mph 23.0 mph N/A   Clear
12:55 PM 73.8 °F 45.5 °F 36% 29.87 in 10.0 mi NW 18.4 mph 23.0 mph N/A   Clear
1:15 PM 73.8 °F 44.8 °F 35% 29.87 in 10.0 mi NW 16.1 mph 19.6 mph N/A   Clear
1:35 PM 74.3 °F 43.0 °F 33% 29.88 in 10.0 mi WNW 13.8 mph 19.6 mph N/A   Clear
1:55 PM 74.1 °F 43.5 °F 33% 29.88 in 10.0 mi WNW 9.2 mph - N/A   Clear
2:15 PM 75.2 °F 41.2 °F 29% 29.87 in 10.0 mi NNW 12.7 mph 19.6 mph N/A   Clear
2:35 PM 75.0 °F 41.5 °F 30% 29.86 in 10.0 mi NW 16.1 mph 21.9 mph N/A   Clear
2:55 PM 75.2 °F 42.4 °F 31% 29.85 in 10.0 mi NNW 10.4 mph 20.7 mph N/A   Clear
3:15 PM 75.7 °F 41.2 °F 29% 29.85 in 10.0 mi NNW 13.8 mph - N/A   Clear
3:35 PM 75.0 °F 40.8 °F 29% 29.85 in 10.0 mi NW 10.4 mph 18.4 mph N/A   Clear
3:55 PM 75.4 °F 42.6 °F 31% 29.85 in 10.0 mi NNW 11.5 mph 17.3 mph N/A   Clear
4:15 PM 75.2 °F 42.3 °F 31% 29.85 in 10.0 mi North 9.2 mph - N/A   Clear
4:35 PM 75.0 °F 43.0 °F 32% 29.85 in 10.0 mi NNW 10.4 mph - N/A   Clear
4:55 PM 74.7 °F 43.9 °F 33% 29.85 in 10.0 mi NNW 8.1 mph - N/A   Clear
5:15 PM 73.0 °F 42.3 °F 33% 29.86 in 10.0 mi WNW 13.8 mph 18.4 mph N/A   Clear
5:35 PM 72.0 °F 46.4 °F 40% 29.87 in 10.0 mi North 12.7 mph 19.6 mph N/A   Clear
5:55 PM 70.7 °F 46.8 °F 42% 29.88 in 10.0 mi NNW 8.1 mph 17.3 mph N/A   Clear
6:15 PM 70.7 °F 45.9 °F 41% 29.88 in 10.0 mi North 10.4 mph - N/A   Clear
6:35 PM 69.6 °F 45.9 °F 43% 29.89 in 10.0 mi North 9.2 mph - N/A   Clear
6:55 PM 68.4 °F 46.2 °F 45% 29.90 in 10.0 mi NNW 9.2 mph - N/A   Clear
7:15 PM 66.2 °F 46.4 °F 49% 29.90 in 10.0 mi North 5.8 mph - N/A   Clear
7:35 PM 65.1 °F 46.4 °F 51% 29.91 in 10.0 mi North 6.9 mph - N/A   Clear
7:55 PM 64.2 °F 45.7 °F 51% 29.92 in 10.0 mi NNW 6.9 mph - N/A   Clear
8:15 PM 62.8 °F 46.6 °F 55% 29.93 in 10.0 mi NNW 5.8 mph - N/A   Clear
8:35 PM 63.1 °F 46.6 °F 55% 29.94 in 10.0 mi North 4.6 mph - N/A   Clear
8:55 PM 59.0 °F 47.3 °F 65% 29.95 in 10.0 mi NE 5.8 mph - N/A   Clear
9:15 PM 59.0 °F 48.0 °F 67% 29.96 in 10.0 mi NE 6.9 mph - N/A   Clear
9:35 PM 59.2 °F 48.0 °F 66% 29.97 in 10.0 mi NNE 6.9 mph - N/A   Clear
9:55 PM 57.2 °F 48.2 °F 72% 29.98 in 10.0 mi NE 8.1 mph - N/A   Clear
10:15 PM 57.7 °F 48.2 °F 70% 29.99 in 10.0 mi NE 5.8 mph - N/A   Scattered Clouds
10:35 PM 58.5 °F 48.6 °F 70% 29.99 in 10.0 mi ENE 4.6 mph - N/A   Overcast
10:55 PM 59.0 °F 48.4 °F 68% 30.00 in 10.0 mi NE 8.1 mph - N/A   Overcast
11:15 PM 58.1 °F 48.4 °F 70% 30.01 in 10.0 mi NE 6.9 mph - N/A   Overcast
11:35 PM 58.3 °F 47.3 °F 67% 30.01 in 10.0 mi NNE 6.9 mph - N/A   Overcast
11:55 PM 57.9 °F 46.6 °F 66% 30.01 in 10.0 mi NNE 5.8 mph - N/A   Overcast